PWSweather.com
Personal Weather Stations
Station Observations
KTXPLANO60
Highlands Of Russell Park, Plano, TX 75025

Highlands Of Russell ParkPlano, TX 75025

Lat: 33.10431671, Lon: -96.75176239

Elevation: 761

Station Type: Davis Wireless VP2 Plus

http://www.planoweather.com

Latest ConditionsUpdated 7:30:06 PM CDT Wednesday, Apr 23, 2014
Currently Today's Max Today's Min Today's Average
Temperature 80.9°F27.2°C 86.6°F30.3°C 60.9°F16.1°C 73.7°F23.2°C
Dew Point 62.2°F16.8°C 63.7°F17.6°C 53.6°F12.0°C 59.0°F15.0°C
Winds 10.4 mph SE16.7 kmh SE 16.8 mph S27.0 kmh S - 6.4 mph 10.3 kmh
Wind Gusts 22.0 mph35.4 kmh 24.0 mph38.6 kmh - -
Humidity 53% 82% 43% 62%
Pressure 29.66 in1004.4 mb 29.89 in1012.2 mb 29.66 in1004.4 mb -
Hour Temp Dew Point Humidity Winds Wind Gusts Pressure Precip Precip Rate Daily Precip Total
07:30 PM 80.9°F27.2°C 62.2°F16.8°C 53% 10.4 mph SE16.7 kmh SE 22.0 mph35.4 kmh 29.66 in1004.4 mb 0.00 in0.0 mm 0.00 in/hr0.0 mm/hr 0.00 in0.0 mm
07:20 PM 81.6°F27.6°C 62.3°F16.8°C 52% 11.3 mph SE18.2 kmh SE 19.0 mph30.6 kmh 29.66 in1004.4 mb 0.00 in0.0 mm 0.00 in/hr0.0 mm/hr 0.00 in0.0 mm
07:10 PM 82.5°F28.1°C 62.0°F16.7°C 50% 8.7 mph SE14.0 kmh SE 18.0 mph29.0 kmh 29.66 in1004.4 mb 0.00 in0.0 mm 0.00 in/hr0.0 mm/hr 0.00 in0.0 mm
07:00 PM 83.5°F28.6°C 61.8°F16.6°C 48% 11.2 mph SE18.0 kmh SE 14.0 mph22.5 kmh 29.66 in1004.4 mb 0.00 in0.0 mm 0.00 in/hr0.0 mm/hr 0.00 in0.0 mm
06:50 PM 84.2°F29.0°C 62.3°F16.8°C 48% 10.3 mph SSE16.6 kmh SSE 16.0 mph25.7 kmh 29.67 in1004.7 mb 0.00 in0.0 mm 0.00 in/hr0.0 mm/hr 0.00 in0.0 mm
06:40 PM 84.0°F28.9°C 62.8°F17.1°C 49% 11.4 mph SE18.3 kmh SE 19.0 mph30.6 kmh 29.68 in1005.1 mb 0.00 in0.0 mm 0.00 in/hr0.0 mm/hr 0.00 in0.0 mm
06:30 PM 84.1°F28.9°C 62.3°F16.8°C 48% 12.6 mph SSE20.3 kmh SSE 18.0 mph29.0 kmh 29.68 in1005.1 mb 0.00 in0.0 mm 0.00 in/hr0.0 mm/hr 0.00 in0.0 mm
06:20 PM 84.4°F29.1°C 61.4°F16.3°C 46% 12.3 mph S19.8 kmh S 24.0 mph38.6 kmh 29.68 in1005.1 mb 0.00 in0.0 mm 0.00 in/hr0.0 mm/hr 0.00 in0.0 mm
06:10 PM 84.4°F29.1°C 61.4°F16.3°C 46% 10.7 mph SSE17.2 kmh SSE 15.0 mph24.1 kmh 29.68 in1005.1 mb 0.00 in0.0 mm 0.00 in/hr0.0 mm/hr 0.00 in0.0 mm
06:00 PM 84.3°F29.1°C 61.3°F16.3°C 46% 11.1 mph ESE17.9 kmh ESE 18.0 mph29.0 kmh 29.69 in1005.4 mb 0.00 in0.0 mm 0.00 in/hr0.0 mm/hr 0.00 in0.0 mm
05:50 PM 84.7°F29.3°C 61.6°F16.4°C 46% 12.6 mph SE20.3 kmh SE 20.0 mph32.2 kmh 29.69 in1005.4 mb 0.00 in0.0 mm 0.00 in/hr0.0 mm/hr 0.00 in0.0 mm
05:40 PM 85.1°F29.5°C 62.0°F16.7°C 46% 9.0 mph S14.5 kmh S 17.0 mph27.4 kmh 29.70 in1005.8 mb 0.00 in0.0 mm 0.00 in/hr0.0 mm/hr 0.00 in0.0 mm
05:30 PM 85.4°F29.7°C 61.6°F16.4°C 45% 11.3 mph SSE18.2 kmh SSE 19.0 mph30.6 kmh 29.70 in1005.8 mb 0.00 in0.0 mm 0.00 in/hr0.0 mm/hr 0.00 in0.0 mm
05:20 PM 85.7°F29.8°C 61.9°F16.6°C 45% 9.2 mph S14.8 kmh S 15.0 mph24.1 kmh 29.70 in1005.8 mb 0.00 in0.0 mm 0.00 in/hr0.0 mm/hr 0.00 in0.0 mm
05:10 PM 86.1°F30.1°C 62.3°F16.8°C 45% 8.5 mph S13.7 kmh S 12.0 mph19.3 kmh 29.70 in1005.8 mb 0.00 in0.0 mm 0.00 in/hr0.0 mm/hr 0.00 in0.0 mm
05:00 PM 86.5°F30.3°C 62.0°F16.7°C 44% 14.0 mph SE22.5 kmh SE 19.0 mph30.6 kmh 29.71 in1006.1 mb 0.00 in0.0 mm 0.00 in/hr0.0 mm/hr 0.00 in0.0 mm
04:50 PM 86.3°F30.2°C 61.2°F16.2°C 43% 10.0 mph SSW16.1 kmh SSW 15.0 mph24.1 kmh 29.71 in1006.1 mb 0.00 in0.0 mm 0.00 in/hr0.0 mm/hr 0.00 in0.0 mm
04:40 PM 86.4°F30.2°C 61.3°F16.3°C 43% 16.8 mph S27.0 kmh S 21.0 mph33.8 kmh 29.72 in1006.4 mb 0.00 in0.0 mm 0.00 in/hr0.0 mm/hr 0.00 in0.0 mm
04:30 PM 86.3°F30.2°C 61.2°F16.2°C 43% 14.5 mph S23.3 kmh S 18.0 mph29.0 kmh 29.72 in1006.4 mb 0.00 in0.0 mm 0.00 in/hr0.0 mm/hr 0.00 in0.0 mm
04:20 PM 86.6°F30.3°C 61.4°F16.3°C 43% 12.5 mph S20.1 kmh S 20.0 mph32.2 kmh 29.73 in1006.8 mb 0.00 in0.0 mm 0.00 in/hr0.0 mm/hr 0.00 in0.0 mm
04:10 PM 86.4°F30.2°C 61.9°F16.6°C 44% 12.2 mph SE19.6 kmh SE 17.0 mph27.4 kmh 29.73 in1006.8 mb 0.00 in0.0 mm 0.00 in/hr0.0 mm/hr 0.00 in0.0 mm
04:00 PM 85.8°F29.9°C 62.0°F16.7°C 45% 11.6 mph S18.7 kmh S 18.0 mph29.0 kmh 29.73 in1006.8 mb 0.00 in0.0 mm 0.00 in/hr0.0 mm/hr 0.00 in0.0 mm
03:50 PM 85.4°F29.7°C 62.3°F16.8°C 46% 14.0 mph SE22.5 kmh SE 20.0 mph32.2 kmh 29.73 in1006.8 mb 0.00 in0.0 mm 0.00 in/hr0.0 mm/hr 0.00 in0.0 mm
03:40 PM 85.6°F29.8°C 62.4°F16.9°C 46% 12.4 mph SSE20.0 kmh SSE 18.0 mph29.0 kmh 29.74 in1007.1 mb 0.00 in0.0 mm 0.00 in/hr0.0 mm/hr 0.00 in0.0 mm
03:30 PM 85.9°F29.9°C 62.7°F17.1°C 46% 14.1 mph SE22.7 kmh SE 17.0 mph27.4 kmh 29.74 in1007.1 mb 0.00 in0.0 mm 0.00 in/hr0.0 mm/hr 0.00 in0.0 mm
03:20 PM 85.8°F29.9°C 62.0°F16.7°C 45% 12.6 mph SSE20.3 kmh SSE 18.0 mph29.0 kmh 29.75 in1007.5 mb 0.00 in0.0 mm 0.00 in/hr0.0 mm/hr 0.00 in0.0 mm
03:10 PM 85.7°F29.8°C 61.3°F16.3°C 44% 8.7 mph S14.0 kmh S 13.0 mph20.9 kmh 29.75 in1007.5 mb 0.00 in0.0 mm 0.00 in/hr0.0 mm/hr 0.00 in0.0 mm
03:00 PM 85.2°F29.6°C 62.1°F16.7°C 46% 12.6 mph S20.3 kmh S 19.0 mph30.6 kmh 29.75 in1007.5 mb 0.00 in0.0 mm 0.00 in/hr0.0 mm/hr 0.00 in0.0 mm
02:50 PM 84.9°F29.4°C 63.0°F17.2°C 48% 9.3 mph SSE15.0 kmh SSE 13.0 mph20.9 kmh 29.76 in1007.8 mb 0.00 in0.0 mm 0.00 in/hr0.0 mm/hr 0.00 in0.0 mm
02:40 PM 84.8°F29.3°C 61.1°F16.2°C 45% 13.4 mph SSE21.6 kmh SSE 18.0 mph29.0 kmh 29.77 in1008.1 mb 0.00 in0.0 mm 0.00 in/hr0.0 mm/hr 0.00 in0.0 mm
02:30 PM 84.5°F29.2°C 62.1°F16.7°C 47% 11.8 mph SE19.0 kmh SE 19.0 mph30.6 kmh 29.77 in1008.1 mb 0.00 in0.0 mm 0.00 in/hr0.0 mm/hr 0.00 in0.0 mm
02:20 PM 84.1°F28.9°C 62.3°F16.8°C 48% 9.6 mph SE15.4 kmh SE 14.0 mph22.5 kmh 29.78 in1008.5 mb 0.00 in0.0 mm 0.00 in/hr0.0 mm/hr 0.00 in0.0 mm
02:10 PM 84.1°F28.9°C 62.3°F16.8°C 48% 8.2 mph S13.2 kmh S 16.0 mph25.7 kmh 29.78 in1008.5 mb 0.00 in0.0 mm 0.00 in/hr0.0 mm/hr 0.00 in0.0 mm
02:00 PM 83.8°F28.8°C 62.6°F17.0°C 49% 12.5 mph SE20.1 kmh SE 17.0 mph27.4 kmh 29.79 in1008.8 mb 0.00 in0.0 mm 0.00 in/hr0.0 mm/hr 0.00 in0.0 mm
01:50 PM 83.3°F28.5°C 62.1°F16.7°C 49% 11.3 mph S18.2 kmh S 17.0 mph27.4 kmh 29.79 in1008.8 mb 0.00 in0.0 mm 0.00 in/hr0.0 mm/hr 0.00 in0.0 mm
01:40 PM 83.2°F28.4°C 61.5°F16.4°C 48% 13.6 mph SE21.9 kmh SE 19.0 mph30.6 kmh 29.80 in1009.1 mb 0.00 in0.0 mm 0.00 in/hr0.0 mm/hr 0.00 in0.0 mm
01:30 PM 83.2°F28.4°C 62.6°F17.0°C 50% 8.1 mph SSE13.0 kmh SSE 18.0 mph29.0 kmh 29.80 in1009.1 mb 0.00 in0.0 mm 0.00 in/hr0.0 mm/hr 0.00 in0.0 mm
01:20 PM 83.1°F28.4°C 62.5°F16.9°C 50% 11.5 mph S18.5 kmh S 19.0 mph30.6 kmh 29.81 in1009.5 mb 0.00 in0.0 mm 0.00 in/hr0.0 mm/hr 0.00 in0.0 mm
01:10 PM 82.7°F28.2°C 62.7°F17.1°C 51% 9.5 mph SW15.3 kmh SW 14.0 mph22.5 kmh 29.81 in1009.5 mb 0.00 in0.0 mm 0.00 in/hr0.0 mm/hr 0.00 in0.0 mm
01:00 PM 82.9°F28.3°C 62.4°F16.9°C 50% 11.3 mph ESE18.2 kmh ESE 15.0 mph24.1 kmh 29.82 in1009.8 mb 0.00 in0.0 mm 0.00 in/hr0.0 mm/hr 0.00 in0.0 mm
12:50 PM 82.5°F28.1°C 62.6°F17.0°C 51% 12.9 mph S20.8 kmh S 16.0 mph25.7 kmh 29.82 in1009.8 mb 0.00 in0.0 mm 0.00 in/hr0.0 mm/hr 0.00 in0.0 mm
12:40 PM 82.1°F27.8°C 62.7°F17.1°C 52% 7.9 mph SSE12.7 kmh SSE 14.0 mph22.5 kmh 29.82 in1009.8 mb 0.00 in0.0 mm 0.00 in/hr0.0 mm/hr 0.00 in0.0 mm
12:30 PM 81.9°F27.7°C 62.0°F16.7°C 51% 11.9 mph SSE19.2 kmh SSE 15.0 mph24.1 kmh 29.83 in1010.2 mb 0.00 in0.0 mm 0.00 in/hr0.0 mm/hr 0.00 in0.0 mm
12:20 PM 81.7°F27.6°C 62.9°F17.2°C 53% 7.2 mph SSE11.6 kmh SSE 14.0 mph22.5 kmh 29.84 in1010.5 mb 0.00 in0.0 mm 0.00 in/hr0.0 mm/hr 0.00 in0.0 mm
12:10 PM 81.6°F27.6°C 62.3°F16.8°C 52% 9.2 mph SSE14.8 kmh SSE 14.0 mph22.5 kmh 29.84 in1010.5 mb 0.00 in0.0 mm 0.00 in/hr0.0 mm/hr 0.00 in0.0 mm
12:00 PM 81.7°F27.6°C 62.9°F17.2°C 53% 10.8 mph SE17.4 kmh SE 19.0 mph30.6 kmh 29.84 in1010.5 mb 0.00 in0.0 mm 0.00 in/hr0.0 mm/hr 0.00 in0.0 mm
11:50 AM 81.5°F27.5°C 63.3°F17.4°C 54% 12.1 mph S19.5 kmh S 20.0 mph32.2 kmh 29.85 in1010.8 mb 0.00 in0.0 mm 0.00 in/hr0.0 mm/hr 0.00 in0.0 mm
11:40 AM 80.9°F27.2°C 63.7°F17.6°C 56% 7.7 mph S12.4 kmh S 10.0 mph16.1 kmh 29.85 in1010.8 mb 0.00 in0.0 mm 0.00 in/hr0.0 mm/hr 0.00 in0.0 mm
11:30 AM 80.4°F26.9°C 63.3°F17.4°C 56% 9.4 mph S15.1 kmh S 14.0 mph22.5 kmh 29.86 in1011.2 mb 0.00 in0.0 mm 0.00 in/hr0.0 mm/hr 0.00 in0.0 mm
11:20 AM 79.9°F26.6°C 62.8°F17.1°C 56% 8.5 mph SSE13.7 kmh SSE 14.0 mph22.5 kmh 29.86 in1011.2 mb 0.00 in0.0 mm 0.00 in/hr0.0 mm/hr 0.00 in0.0 mm
11:10 AM 79.4°F26.3°C 62.4°F16.9°C 56% 11.1 mph SSE17.9 kmh SSE 15.0 mph24.1 kmh 29.86 in1011.2 mb 0.00 in0.0 mm 0.00 in/hr0.0 mm/hr 0.00 in0.0 mm
11:00 AM 78.7°F25.9°C 62.7°F17.1°C 58% 8.6 mph SE13.8 kmh SE 13.0 mph20.9 kmh 29.86 in1011.2 mb 0.00 in0.0 mm 0.00 in/hr0.0 mm/hr 0.00 in0.0 mm
10:50 AM 78.0°F25.6°C 62.5°F16.9°C 59% 10.9 mph SE17.5 kmh SE 16.0 mph25.7 kmh 29.86 in1011.2 mb 0.00 in0.0 mm 0.00 in/hr0.0 mm/hr 0.00 in0.0 mm
10:40 AM 77.3°F25.2°C 61.9°F16.6°C 59% 12.1 mph S19.5 kmh S 18.0 mph29.0 kmh 29.86 in1011.2 mb 0.00 in0.0 mm 0.00 in/hr0.0 mm/hr 0.00 in0.0 mm
10:30 AM 76.8°F24.9°C 62.4°F16.9°C 61% 10.0 mph S16.1 kmh S 17.0 mph27.4 kmh 29.86 in1011.2 mb 0.00 in0.0 mm 0.00 in/hr0.0 mm/hr 0.00 in0.0 mm
10:20 AM 76.5°F24.7°C 62.0°F16.7°C 61% 12.4 mph S20.0 kmh S 16.0 mph25.7 kmh 29.86 in1011.2 mb 0.00 in0.0 mm 0.00 in/hr0.0 mm/hr 0.00 in0.0 mm
10:10 AM 75.9°F24.4°C 62.4°F16.9°C 63% 8.5 mph S13.7 kmh S 12.0 mph19.3 kmh 29.86 in1011.2 mb 0.00 in0.0 mm 0.00 in/hr0.0 mm/hr 0.00 in0.0 mm
10:00 AM 75.5°F24.2°C 62.0°F16.7°C 63% 9.4 mph S15.1 kmh S 13.0 mph20.9 kmh 29.86 in1011.2 mb 0.00 in0.0 mm 0.00 in/hr0.0 mm/hr 0.00 in0.0 mm
09:50 AM 74.9°F23.8°C 61.9°F16.6°C 64% 9.6 mph SSE15.4 kmh SSE 18.0 mph29.0 kmh 29.86 in1011.2 mb 0.00 in0.0 mm 0.00 in/hr0.0 mm/hr 0.00 in0.0 mm
09:40 AM 74.2°F23.4°C 62.1°F16.7°C 66% 9.3 mph SE15.0 kmh SE 11.0 mph17.7 kmh 29.86 in1011.2 mb 0.00 in0.0 mm 0.00 in/hr0.0 mm/hr 0.00 in0.0 mm
09:30 AM 73.5°F23.1°C 61.9°F16.6°C 67% 7.9 mph SSE12.7 kmh SSE 14.0 mph22.5 kmh 29.86 in1011.2 mb 0.00 in0.0 mm 0.00 in/hr0.0 mm/hr 0.00 in0.0 mm
09:20 AM 73.3°F22.9°C 61.7°F16.5°C 67% 11.5 mph SSE18.5 kmh SSE 15.0 mph24.1 kmh 29.86 in1011.2 mb 0.00 in0.0 mm 0.00 in/hr0.0 mm/hr 0.00 in0.0 mm
09:10 AM 73.1°F22.8°C 61.9°F16.6°C 68% 7.2 mph SSE11.6 kmh SSE 12.0 mph19.3 kmh 29.86 in1011.2 mb 0.00 in0.0 mm 0.00 in/hr0.0 mm/hr 0.00 in0.0 mm
09:00 AM 72.4°F22.4°C 61.7°F16.5°C 69% 7.8 mph SSE12.6 kmh SSE 9.0 mph14.5 kmh 29.87 in1011.5 mb 0.00 in0.0 mm 0.00 in/hr0.0 mm/hr 0.00 in0.0 mm
08:50 AM 71.6°F22.0°C 61.3°F16.3°C 70% 6.0 mph SSE9.7 kmh SSE 11.0 mph17.7 kmh 29.87 in1011.5 mb 0.00 in0.0 mm 0.00 in/hr0.0 mm/hr 0.00 in0.0 mm
08:40 AM 70.7°F21.5°C 61.2°F16.2°C 72% 5.3 mph SE8.5 kmh SE 10.0 mph16.1 kmh 29.87 in1011.5 mb 0.00 in0.0 mm 0.00 in/hr0.0 mm/hr 0.00 in0.0 mm
08:30 AM 69.7°F20.9°C 60.3°F15.7°C 72% 5.2 mph SE8.4 kmh SE 11.0 mph17.7 kmh 29.86 in1011.2 mb 0.00 in0.0 mm 0.00 in/hr0.0 mm/hr 0.00 in0.0 mm
08:20 AM 68.7°F20.4°C 59.7°F15.4°C 73% 3.5 mph SE5.6 kmh SE 7.0 mph11.3 kmh 29.86 in1011.2 mb 0.00 in0.0 mm 0.00 in/hr0.0 mm/hr 0.00 in0.0 mm
08:10 AM 67.8°F19.9°C 59.6°F15.3°C 75% 3.8 mph SE6.1 kmh SE 9.0 mph14.5 kmh 29.87 in1011.5 mb 0.00 in0.0 mm 0.00 in/hr0.0 mm/hr 0.00 in0.0 mm
08:00 AM 66.9°F19.4°C 58.8°F14.9°C 75% 0.6 mph SE1.0 kmh SE 8.0 mph12.9 kmh 29.87 in1011.5 mb 0.00 in0.0 mm 0.00 in/hr0.0 mm/hr 0.00 in0.0 mm
07:50 AM 65.8°F18.8°C 58.4°F14.7°C 77% 0.6 mph SE1.0 kmh SE 4.0 mph6.4 kmh 29.87 in1011.5 mb 0.00 in0.0 mm 0.00 in/hr0.0 mm/hr 0.00 in0.0 mm
07:40 AM 64.6°F18.1°C 57.6°F14.2°C 78% 1.8 mph SE2.9 kmh SE 5.0 mph8.0 kmh 29.87 in1011.5 mb 0.00 in0.0 mm 0.00 in/hr0.0 mm/hr 0.00 in0.0 mm
07:30 AM 63.5°F17.5°C 56.8°F13.8°C 79% 2.1 mph SE3.4 kmh SE 6.0 mph9.7 kmh 29.86 in1011.2 mb 0.00 in0.0 mm 0.00 in/hr0.0 mm/hr 0.00 in0.0 mm
07:20 AM 62.4°F16.9°C 56.1°F13.4°C 80% 0.1 mph SE0.2 kmh SE -- 29.86 in1011.2 mb 0.00 in0.0 mm 0.00 in/hr0.0 mm/hr 0.00 in0.0 mm
07:10 AM 61.6°F16.4°C 56.1°F13.4°C 82% 1.6 mph SE2.6 kmh SE 2.0 mph3.2 kmh 29.86 in1011.2 mb 0.00 in0.0 mm 0.00 in/hr0.0 mm/hr 0.00 in0.0 mm
07:00 AM 61.1°F16.2°C 55.6°F13.1°C 82% 1.4 mph SE2.3 kmh SE 1.0 mph1.6 kmh 29.86 in1011.2 mb 0.00 in0.0 mm 0.00 in/hr0.0 mm/hr 0.00 in0.0 mm
06:50 AM 60.9°F16.1°C 55.0°F12.8°C 81% 1.2 mph SE1.9 kmh SE 2.0 mph3.2 kmh 29.86 in1011.2 mb 0.00 in0.0 mm 0.00 in/hr0.0 mm/hr 0.00 in0.0 mm
06:40 AM 61.1°F16.2°C 54.9°F12.7°C 80% 2.0 mph SE3.2 kmh SE 5.0 mph8.0 kmh 29.86 in1011.2 mb 0.00 in0.0 mm 0.00 in/hr0.0 mm/hr 0.00 in0.0 mm
06:30 AM 61.3°F16.3°C 55.1°F12.8°C 80% 2.0 mph SE3.2 kmh SE 5.0 mph8.0 kmh 29.85 in1010.8 mb 0.00 in0.0 mm 0.00 in/hr0.0 mm/hr 0.00 in0.0 mm
06:20 AM 61.5°F16.4°C 55.3°F12.9°C 80% 1.5 mph SE2.4 kmh SE 5.0 mph8.0 kmh 29.85 in1010.8 mb 0.00 in0.0 mm 0.00 in/hr0.0 mm/hr 0.00 in0.0 mm
06:10 AM 61.7°F16.5°C 55.4°F13.0°C 80% 2.8 mph SE4.5 kmh SE 5.0 mph8.0 kmh 29.84 in1010.5 mb 0.00 in0.0 mm 0.00 in/hr0.0 mm/hr 0.00 in0.0 mm
06:00 AM 61.7°F16.5°C 55.5°F13.1°C 80% 2.1 mph SE3.4 kmh SE 6.0 mph9.7 kmh 29.84 in1010.5 mb 0.00 in0.0 mm 0.00 in/hr0.0 mm/hr 0.00 in0.0 mm
05:50 AM 61.8°F16.6°C 55.6°F13.1°C 80% 1.2 mph SE1.9 kmh SE 6.0 mph9.7 kmh 29.84 in1010.5 mb 0.00 in0.0 mm 0.00 in/hr0.0 mm/hr 0.00 in0.0 mm
05:40 AM 61.7°F16.5°C 55.8°F13.2°C 81% 2.2 mph SE3.5 kmh SE 6.0 mph9.7 kmh 29.85 in1010.8 mb 0.00 in0.0 mm 0.00 in/hr0.0 mm/hr 0.00 in0.0 mm
05:30 AM 61.6°F16.4°C 55.7°F13.2°C 81% 3.3 mph ESE5.3 kmh ESE 6.0 mph9.7 kmh 29.84 in1010.5 mb 0.00 in0.0 mm 0.00 in/hr0.0 mm/hr 0.00 in0.0 mm
05:20 AM 61.4°F16.3°C 55.5°F13.1°C 81% 2.4 mph E3.9 kmh E 5.0 mph8.0 kmh 29.85 in1010.8 mb 0.00 in0.0 mm 0.00 in/hr0.0 mm/hr 0.00 in0.0 mm
05:10 AM 61.4°F16.3°C 55.5°F13.1°C 81% 0.6 mph E1.0 kmh E 4.0 mph6.4 kmh 29.85 in1010.8 mb 0.00 in0.0 mm 0.00 in/hr0.0 mm/hr 0.00 in0.0 mm
05:00 AM 61.3°F16.3°C 55.1°F12.8°C 80% 1.0 mph E1.6 kmh E 4.0 mph6.4 kmh 29.85 in1010.8 mb 0.00 in0.0 mm 0.00 in/hr0.0 mm/hr 0.00 in0.0 mm
04:50 AM 61.4°F16.3°C 54.8°F12.7°C 79% 1.5 mph E2.4 kmh E 4.0 mph6.4 kmh 29.85 in1010.8 mb 0.00 in0.0 mm 0.00 in/hr0.0 mm/hr 0.00 in0.0 mm
04:40 AM 61.4°F16.3°C 54.5°F12.5°C 78% 0.9 mph E1.4 kmh E 2.0 mph3.2 kmh 29.85 in1010.8 mb 0.00 in0.0 mm 0.00 in/hr0.0 mm/hr 0.00 in0.0 mm
04:30 AM 61.4°F16.3°C 54.5°F12.5°C 78% 1.1 mph ENE1.8 kmh ENE 3.0 mph4.8 kmh 29.85 in1010.8 mb 0.00 in0.0 mm 0.00 in/hr0.0 mm/hr 0.00 in0.0 mm
04:20 AM 61.4°F16.3°C 54.1°F12.3°C 77% 1.5 mph ENE2.4 kmh ENE 3.0 mph4.8 kmh 29.85 in1010.8 mb 0.00 in0.0 mm 0.00 in/hr0.0 mm/hr 0.00 in0.0 mm
04:10 AM 61.6°F16.4°C 54.0°F12.2°C 76% 0.4 mph ENE0.6 kmh ENE 2.0 mph3.2 kmh 29.86 in1011.2 mb 0.00 in0.0 mm 0.00 in/hr0.0 mm/hr 0.00 in0.0 mm
04:00 AM 61.8°F16.6°C 53.8°F12.1°C 75% Calm Calm -- 29.86 in1011.2 mb 0.00 in0.0 mm 0.00 in/hr0.0 mm/hr 0.00 in0.0 mm
03:50 AM 61.8°F16.6°C 54.2°F12.3°C 76% 0.4 mph ENE0.6 kmh ENE 3.0 mph4.8 kmh 29.86 in1011.2 mb 0.00 in0.0 mm 0.00 in/hr0.0 mm/hr 0.00 in0.0 mm
03:40 AM 61.6°F16.4°C 53.6°F12.0°C 75% 0.5 mph ENE0.8 kmh ENE 2.0 mph3.2 kmh 29.86 in1011.2 mb 0.00 in0.0 mm 0.00 in/hr0.0 mm/hr 0.00 in0.0 mm
03:30 AM 61.6°F16.4°C 53.9°F12.2°C 76% 0.5 mph ENE0.8 kmh ENE 2.0 mph3.2 kmh 29.86 in1011.2 mb 0.00 in0.0 mm 0.00 in/hr0.0 mm/hr 0.00 in0.0 mm
03:20 AM 61.6°F16.4°C 54.0°F12.2°C 76% Calm Calm 1.0 mph1.6 kmh 29.86 in1011.2 mb 0.00 in0.0 mm 0.00 in/hr0.0 mm/hr 0.00 in0.0 mm
03:10 AM 61.7°F16.5°C 54.1°F12.3°C 76% 0.8 mph ENE1.3 kmh ENE 3.0 mph4.8 kmh 29.86 in1011.2 mb 0.00 in0.0 mm 0.00 in/hr0.0 mm/hr 0.00 in0.0 mm
03:00 AM 61.7°F16.5°C 54.1°F12.3°C 76% Calm Calm -- 29.86 in1011.2 mb 0.00 in0.0 mm 0.00 in/hr0.0 mm/hr 0.00 in0.0 mm
02:50 AM 61.8°F16.6°C 53.8°F12.1°C 75% 0.8 mph ENE1.3 kmh ENE 2.0 mph3.2 kmh 29.86 in1011.2 mb 0.00 in0.0 mm 0.00 in/hr0.0 mm/hr 0.00 in0.0 mm
02:40 AM 62.1°F16.7°C 53.7°F12.1°C 74% 0.1 mph ENE0.2 kmh ENE 2.0 mph3.2 kmh 29.86 in1011.2 mb 0.00 in0.0 mm 0.00 in/hr0.0 mm/hr 0.00 in0.0 mm
02:30 AM 62.5°F16.9°C 53.7°F12.1°C 73% Calm Calm -- 29.86 in1011.2 mb 0.00 in0.0 mm 0.00 in/hr0.0 mm/hr 0.00 in0.0 mm
02:20 AM 63.1°F17.3°C 53.9°F12.2°C 72% Calm Calm -- 29.86 in1011.2 mb 0.00 in0.0 mm 0.00 in/hr0.0 mm/hr 0.00 in0.0 mm
02:10 AM 63.7°F17.6°C 53.7°F12.1°C 70% Calm Calm -- 29.87 in1011.5 mb 0.00 in0.0 mm 0.00 in/hr0.0 mm/hr 0.00 in0.0 mm
02:00 AM 64.3°F17.9°C 53.6°F12.0°C 68% Calm Calm -- 29.87 in1011.5 mb 0.00 in0.0 mm 0.00 in/hr0.0 mm/hr 0.00 in0.0 mm
01:50 AM 65.0°F18.3°C 53.8°F12.1°C 67% Calm Calm -- 29.87 in1011.5 mb 0.00 in0.0 mm 0.00 in/hr0.0 mm/hr 0.00 in0.0 mm
01:40 AM 65.5°F18.6°C 53.8°F12.1°C 66% Calm Calm -- 29.88 in1011.9 mb 0.00 in0.0 mm 0.00 in/hr0.0 mm/hr 0.00 in0.0 mm
01:30 AM 65.6°F18.7°C 53.9°F12.2°C 66% 0.7 mph ENE1.1 kmh ENE 3.0 mph4.8 kmh 29.88 in1011.9 mb 0.00 in0.0 mm 0.00 in/hr0.0 mm/hr 0.00 in0.0 mm
01:20 AM 65.4°F18.6°C 54.2°F12.3°C 67% 0.4 mph ENE0.6 kmh ENE 2.0 mph3.2 kmh 29.88 in1011.9 mb 0.00 in0.0 mm 0.00 in/hr0.0 mm/hr 0.00 in0.0 mm
01:10 AM 65.1°F18.4°C 54.3°F12.4°C 68% 1.0 mph ENE1.6 kmh ENE 3.0 mph4.8 kmh 29.88 in1011.9 mb 0.00 in0.0 mm 0.00 in/hr0.0 mm/hr 0.00 in0.0 mm
01:00 AM 65.4°F18.6°C 54.2°F12.3°C 67% 0.3 mph ENE0.5 kmh ENE 2.0 mph3.2 kmh 29.89 in1012.2 mb 0.00 in0.0 mm 0.00 in/hr0.0 mm/hr 0.00 in0.0 mm
12:50 AM 65.8°F18.8°C 54.5°F12.5°C 67% Calm Calm 1.0 mph1.6 kmh 29.89 in1012.2 mb 0.00 in0.0 mm 0.00 in/hr0.0 mm/hr 0.00 in0.0 mm
12:40 AM 66.3°F19.1°C 54.6°F12.6°C 66% 0.4 mph ENE0.6 kmh ENE 2.0 mph3.2 kmh 29.89 in1012.2 mb 0.00 in0.0 mm 0.00 in/hr0.0 mm/hr 0.00 in0.0 mm
12:30 AM 66.7°F19.3°C 54.1°F12.3°C 64% 0.6 mph ENE1.0 kmh ENE 4.0 mph6.4 kmh 29.89 in1012.2 mb 0.00 in0.0 mm 0.00 in/hr0.0 mm/hr 0.00 in0.0 mm
12:20 AM 67.1°F19.5°C 54.1°F12.3°C 63% 1.5 mph ENE2.4 kmh ENE 3.0 mph4.8 kmh 29.89 in1012.2 mb 0.00 in0.0 mm 0.00 in/hr0.0 mm/hr 0.00 in0.0 mm
12:10 AM 67.7°F19.8°C 53.8°F12.1°C 61% Calm Calm -- 29.89 in1012.2 mb 0.00 in0.0 mm 0.00 in/hr0.0 mm/hr 0.00 in0.0 mm
12:00 AM 67.9°F19.9°C 54.0°F12.2°C 61% 0.5 mph NE0.8 kmh NE 2.0 mph3.2 kmh 29.89 in1012.2 mb 0.00 in0.0 mm 0.00 in/hr0.0 mm/hr 0.00 in0.0 mm